WetterOnline ( https://www.wetteronline.ch )

Wetter aktuell Winterberg

Aktuelles Wetter: Kahler Asten (841m)

6-stündlich | Neueste Meldungen
Ortszeit Temperatur Wetter
Do, 01.12. 13:00 -0.4° C Nebel
Do, 01.12. 7:00 0.7° C Nebel
Do, 01.12. 1:00 1.5° C Nebel
Mi, 30.11. 19:00 1.4° C Nebel
Mi, 30.11. 13:00 2.2° C Sprühregen
Mi, 30.11. 7:00 2.7° C Nebel
Mi, 30.11. 1:00 3.0° C Nebel
Di, 29.11. 19:00 3.1° C Sprühregen
Ortszeit Temperatur Wetter
Do, 01.12. 16:30 -1.6° C Nebel
Do, 01.12. 16:20 -1.6° C Nebel
Do, 01.12. 16:10 -1.5° C Nebel
Do, 01.12. 16:00 -1.4° C Nebel
Do, 01.12. 15:50 -1.4° C Nebel
Do, 01.12. 15:40 -1.3° C Nebel
Do, 01.12. 15:30 -1.1° C Nebel
Do, 01.12. 15:00 -0.9° C Nebel
Do, 01.12. 14:30 -0.5° C Nebel
Do, 01.12. 14:00 -0.6° C Nebel
Do, 01.12. 13:30 -0.4° C Nebel
Ortszeit Relative Feuchte Sichtweite
Do, 01.12. 13:00 100% 100 m
Do, 01.12. 7:00 100% <100 m
Do, 01.12. 1:00 100% <100 m
Mi, 30.11. 19:00 100% <100 m
Mi, 30.11. 13:00 100% 0.4 km
Mi, 30.11. 7:00 100% 0.3 km
Mi, 30.11. 1:00 100% 100 m
Di, 29.11. 19:00 100% 100 m
Ortszeit Relative Feuchte Sichtweite
Do, 01.12. 16:30 100% <100 m
Do, 01.12. 16:20 100% -
Do, 01.12. 16:10 100% -
Do, 01.12. 16:00 100% <100 m
Do, 01.12. 15:50 100% -
Do, 01.12. 15:40 99% -
Do, 01.12. 15:30 100% <100 m
Do, 01.12. 15:00 100% <100 m
Do, 01.12. 14:30 100% 0.2 km
Do, 01.12. 14:00 99% 0.2 km
Do, 01.12. 13:30 100% <100 m
Ortszeit Niederschlagsmenge Niederschlagsart
Do, 01.12. 13:00 0.1 l/m2 in 6 Std. Sprühregen, Niederschlag
Do, 01.12. 7:00 0.1 l/m2 in 12 Std. Sprühregen
Do, 01.12. 1:00 0.1 l/m2 in 6 Std. Sprühregen
Mi, 30.11. 19:00 0.1 l/m2 in 12 Std. Sprühregen
Mi, 30.11. 13:00 0.1 l/m2 in 6 Std. Sprühregen
Mi, 30.11. 7:00 0.4 l/m2 in 12 Std. Sprühregen
Mi, 30.11. 1:00 0.4 l/m2 in 6 Std. Regen
Di, 29.11. 19:00 0.2 l/m2 in 12 Std. Sprühregen
Ortszeit Niederschlagsmenge Niederschlagsart
Do, 01.12. 16:30 <0.05 l/m2 in 1 Std. -
Do, 01.12. 16:20 keine Meldung -
Do, 01.12. 16:10 keine Meldung -
Do, 01.12. 16:00 0.0 l/m2 in 1 Std. -
Do, 01.12. 15:50 keine Meldung -
Do, 01.12. 15:40 keine Meldung -
Do, 01.12. 15:30 0.0 l/m2 in 1 Std. -
Do, 01.12. 15:00 0.0 l/m2 in 1 Std. -
Do, 01.12. 14:30 0.0 l/m2 in 1 Std. -
Do, 01.12. 14:00 0.0 l/m2 in 1 Std. -
Do, 01.12. 13:30 0.0 l/m2 in 1 Std. -
Ortszeit Stärke Spitze Richtung
km/h Bft. km/h Grad Sektor
Do, 01.12. 13:00 14 3 29 40° NO
Do, 01.12. 7:00 15 3 24 20° N
Do, 01.12. 1:00 14 3 25 20° N
Mi, 30.11. 19:00 14 3 18 360° N
Mi, 30.11. 13:00 4 1 25 40° NO
Mi, 30.11. 7:00 19 3 26 320° NW
Mi, 30.11. 1:00 14 3 25 310° NW
Di, 29.11. 19:00 9 2 22 310° NW
Ortszeit Stärke Spitze Richtung
km/h Bft. km/h Grad Sektor
Do, 01.12. 16:30 14 3 25 60° NO
Do, 01.12. 16:20 14 3 - 60° NO
Do, 01.12. 16:10 14 3 - 60° NO
Do, 01.12. 16:00 14 3 25 40° NO
Do, 01.12. 15:50 14 3 - 40° NO
Do, 01.12. 15:40 17 3 - 60° NO
Do, 01.12. 15:30 17 3 24 50° NO
Do, 01.12. 15:00 14 3 25 50° NO
Do, 01.12. 14:30 14 3 25 50° NO
Do, 01.12. 14:00 14 3 22 40° NO
Do, 01.12. 13:30 13 3 22 50° NO
Ortszeit Untergrenze Bedeckung Gattung
total tief tief mittel hoch
Do, 01.12. 13:00 <30 m 8/8 0/8 - - -
Do, 01.12. 7:00 <30 m 8/8 0/8 - - -
Do, 01.12. 1:00 <30 m 8/8 0/8 - - -
Mi, 30.11. 19:00 <30 m 8/8 0/8 - - -
Mi, 30.11. 13:00 <30 m 8/8 0/8 - - -
Mi, 30.11. 7:00 <30 m 8/8 0/8 - - -
Mi, 30.11. 1:00 <30 m 8/8 0/8 - - -
Di, 29.11. 19:00 <30 m 8/8 0/8 - - -
Ortszeit Bedeckungsgrad in Achtel und Wolkenuntergrenze
Do, 01.12. 16:30 8(<30m)
Do, 01.12. 16:20 8(<30m)
Do, 01.12. 16:10 8
Do, 01.12. 16:00 8(<30m)
Do, 01.12. 15:50 8(<30m)
Do, 01.12. 15:40 8
Do, 01.12. 15:30 8(<30m)
Do, 01.12. 15:00 8(<30m)
Do, 01.12. 14:30 8(<30m)
Do, 01.12. 14:00 8(<30m)
Do, 01.12. 13:30 8(<30m)
Ortszeit Stationsdruck (hPa) Tendenz (hPa in 3 Std.)
Do, 01.12. 13:00 923 - 0,5
Do, 01.12. 7:00 923 0,0
Do, 01.12. 1:00 923 - 0,1
Mi, 30.11. 19:00 922 + 0,8
Mi, 30.11. 13:00 921 + 0,3
Mi, 30.11. 7:00 920 + 0,3
Mi, 30.11. 1:00 920 + 0,2
Di, 29.11. 19:00 919 + 0,9
Ortszeit Stationsdruck (hPa) Tendenz (hPa in 3 Std.)
Do, 01.12. 16:30 922 - 0,3
Do, 01.12. 16:20 922 keine Meldung
Do, 01.12. 16:10 922 keine Meldung
Do, 01.12. 16:00 922 - 0,5
Do, 01.12. 15:50 922 keine Meldung
Do, 01.12. 15:40 922 keine Meldung
Do, 01.12. 15:30 922 - 0,7
Do, 01.12. 15:00 922 - 0,6
Do, 01.12. 14:30 923 - 0,8
Do, 01.12. 14:00 923 - 0,9
Do, 01.12. 13:30 923 - 0,7
Ortszeit Schneehöhe (cm)
Do, 01.12. 13:00 0
Do, 01.12. 7:00 0
Do, 01.12. 1:00 0
Mi, 30.11. 19:00 0
Mi, 30.11. 13:00 0
Mi, 30.11. 7:00 0
Mi, 30.11. 1:00 0
Di, 29.11. 19:00 0
Ortszeit Schneehöhe (cm)
Do, 01.12. 16:30 0
Do, 01.12. 16:20 0
Do, 01.12. 16:10 0
Do, 01.12. 16:00 0
Do, 01.12. 15:50 0
Do, 01.12. 15:40 0
Do, 01.12. 15:30 0
Do, 01.12. 15:00 0
Do, 01.12. 14:30 0
Do, 01.12. 14:00 0
Do, 01.12. 13:30 0
Link zu dieser Seite / Seite empfehlen

Das Wetter in ...